Time;durP1;ratioP1;P1;durP2;ratioP2;P2;SDS_P1;SDS_P2;PMS_P1;PMS_P2;Temp;Humidity;BMP_temperature;BMP_pressure;BME280_temperature;BME280_humidity;BME280_pressure;Samples;Min_cycle;Max_cycle;Signal;HPM_P1;HPM_P2
2022/07/28 00:01:58;;;;;;;2.50;0.80;;;;;;;15.09;66.63;101991.81;5073848;28;19962;-36
2022/07/28 00:04:23;;;;;;;;;;;;;;;15.28;66.15;101992.56;5074251;28;20028;-36
2022/07/28 00:06:48;;;;;;;3.10;0.90;;;;;;;15.18;66.62;101993.13;5073972;28;20018;-36
2022/07/28 00:09:13;;;;;;;2.00;0.70;;;;;;;15.20;66.51;101994.56;5073522;28;20626;-36
2022/07/28 00:11:38;;;;;;;;;;;;;;;15.33;65.97;101993.53;5074617;28;20059;-36
2022/07/28 00:14:04;;;;;;;1.80;0.80;;;;;;;15.10;66.85;101991.56;5073392;28;19908;-36
2022/07/28 00:16:29;;;;;;;;;;;;;;;15.23;65.89;101989.72;5074710;28;20029;-36
2022/07/28 00:18:54;;;;;;;2.17;0.80;;;;;;;15.07;66.82;101989.31;5073624;28;19963;-36
2022/07/28 00:21:20;;;;;;;;;;;;;;;15.16;66.43;101979.72;5074159;28;20064;-36
2022/07/28 00:23:45;;;;;;;2.60;1.00;;;;;;;14.96;67.84;101981.09;5073463;28;19916;-36
2022/07/28 00:26:11;;;;;;;;;;;;;;;15.10;66.83;101985.28;5074635;28;20055;-36
2022/07/28 00:28:37;;;;;;;2.70;0.75;;;;;;;15.01;68.16;101995.69;5073553;28;20304;-36
2022/07/28 00:31:04;;;;;;;4.55;1.38;;;;;;;14.93;67.69;101985.13;5073128;28;20472;-36
2022/07/28 00:33:29;;;;;;;9.15;1.08;;;;;;;14.70;68.02;101983.16;5073057;28;20028;-36
2022/07/28 00:35:54;;;;;;;;;;;;;;;14.89;67.40;101995.66;5074260;28;20086;-36
2022/07/28 00:38:20;;;;;;;2.07;0.90;;;;;;;14.72;68.66;101982.91;5073183;28;19912;-36
2022/07/28 00:43:29;;;;;;;2.72;0.70;;;;;;;14.79;68.42;101979.06;5073232;28;20322;-36
2022/07/28 00:45:54;;;;;;;;;;;;;;;14.91;67.53;101977.19;5074161;28;20036;-36
2022/07/28 00:48:19;;;;;;;4.03;0.90;;;;;;;14.75;68.64;101982.47;5073063;28;19908;-36
2022/07/28 00:50:45;;;;;;;;;;;;;;;14.83;67.25;101980.22;5073859;28;20028;-36
2022/07/28 00:53:10;;;;;;;3.08;0.98;;;;;;;14.64;68.71;101984.91;5073068;28;19908;-36
2022/07/28 00:55:38;;;;;;;1.90;0.80;;;;;;;14.71;69.02;101975.81;5073333;28;20044;-36
2022/07/28 00:58:04;;;;;;;3.42;1.10;;;;;;;14.62;69.02;101973.41;5072944;28;20113;-36
2022/07/28 01:00:29;;;;;;;;;;;;;;;14.77;67.84;101966.72;5073303;28;20048;-36
2022/07/28 01:02:55;;;;;;;3.50;1.15;;;;;;;14.48;69.41;101965.66;5073198;28;19995;-36
2022/07/28 01:05:20;;;;;;;3.13;1.00;;;;;;;14.47;69.70;101966.69;5073211;28;20474;-36
2022/07/28 01:08:04;;;;;;;6.60;1.20;;;;;;;14.33;70.17;101969.56;5073421;28;20033;-36
2022/07/28 01:10:51;;;;;;;2.83;0.85;;;;;;;14.36;70.10;101960.13;5073250;28;20487;-36
2022/07/28 01:13:31;;;;;;;2.40;0.90;;;;;;;14.21;70.49;101954.25;5072879;28;20028;-36
2022/07/28 01:16:05;;;;;;;2.70;1.02;;;;;;;14.31;70.78;101966.25;5073233;28;20028;-36
2022/07/28 01:18:55;;;;;;;2.67;0.82;;;;;;;14.29;70.11;101971.09;5073522;28;20391;-36
2022/07/28 01:21:27;;;;;;;3.72;1.10;;;;;;;14.17;70.68;101962.88;5072191;28;20373;-36
2022/07/28 01:24:25;;;;;;;2.35;0.93;;;;;;;14.25;70.58;101963.59;5072706;28;20032;-36
2022/07/28 01:26:58;;;;;;;5.60;1.58;;;;;;;14.28;70.60;101957.72;5072957;28;20071;-36
2022/07/28 01:29:48;;;;;;;2.28;0.82;;;;;;;14.17;70.91;101960.16;5072970;28;20028;-36
2022/07/28 01:32:24;;;;;;;3.13;1.00;;;;;;;14.23;70.56;101958.41;5072720;28;20460;-36
2022/07/28 01:35:24;;;;;;;2.97;1.13;;;;;;;14.26;70.40;101962.56;5072570;28;20093;-36
2022/07/28 01:37:53;;;;;;;6.18;1.30;;;;;;;14.18;70.74;101956.38;5030817;28;20044;-36
2022/07/28 01:40:24;;;;;;;2.20;0.82;;;;;;;14.13;71.31;101958.09;5030079;28;20048;-36
2022/07/28 01:42:52;;;;;;;3.30;1.00;;;;;;;14.03;71.78;101946.94;5030472;28;20065;-36
2022/07/28 01:45:20;;;;;;;2.03;1.00;;;;;;;14.06;71.31;101941.88;5030370;28;20401;-36
2022/07/28 01:47:47;;;;;;;2.47;0.90;;;;;;;14.14;71.34;101949.72;5030083;28;20385;-36
2022/07/28 01:50:15;;;;;;;3.50;1.15;;;;;;;14.08;71.34;101950.63;5030589;28;20092;-36
2022/07/28 01:52:41;;;;;;;4.15;1.30;;;;;;;14.00;71.27;101948.19;5030071;28;20025;-36
2022/07/28 01:55:08;;;;;;;4.60;1.20;;;;;;;13.99;72.14;101951.16;5029952;28;20440;-36
2022/07/28 01:57:35;;;;;;;5.30;1.38;;;;;;;14.03;71.69;101942.31;5029868;28;20032;-36
2022/07/28 02:00:02;;;;;;;2.40;1.15;;;;;;;13.94;72.30;101940.97;5030071;28;20183;-36
2022/07/28 02:02:29;;;;;;;3.80;1.20;;;;;;;13.93;72.42;101952.91;5030272;28;20036;-36
2022/07/28 02:04:57;;;;;;;3.15;1.10;;;;;;;13.79;72.31;101935.91;5030350;28;20034;-36
2022/07/28 02:07:24;;;;;;;5.05;1.20;;;;;;;13.86;72.69;101933.13;5030059;28;20608;-36
2022/07/28 02:09:52;;;;;;;3.30;0.88;;;;;;;13.78;72.84;101936.13;5030689;28;20034;-36
2022/07/28 02:12:18;;;;;;;2.70;1.15;;;;;;;13.82;72.75;101931.91;5036172;28;20029;-36
2022/07/28 02:14:49;;;;;;;3.72;1.10;;;;;;;13.88;72.28;101926.38;5076029;28;20028;-36
2022/07/28 02:17:18;;;;;;;3.28;1.23;;;;;;;13.80;72.93;101920.41;5075761;28;20021;-36
2022/07/28 02:19:46;;;;;;;3.28;1.30;;;;;;;13.85;72.55;101931.44;5075873;28;20024;-36
2022/07/28 02:22:13;;;;;;;4.22;1.42;;;;;;;13.79;72.29;101916.03;5075864;28;20132;-36
2022/07/28 02:24:40;;;;;;;4.38;1.30;;;;;;;13.74;72.50;101927.59;5075807;28;20024;-36
2022/07/28 02:27:22;;;;;;;5.35;1.30;;;;;;;13.85;71.97;101929.53;5075796;28;20036;-36
2022/07/28 02:29:56;;;;;;;3.08;1.40;;;;;;;13.75;72.11;101926.53;5075898;28;20032;-36
2022/07/28 02:32:35;;;;;;;4.18;1.17;;;;;;;13.65;72.38;101926.22;5075898;28;20043;-35
2022/07/28 02:35:07;;;;;;;3.60;1.10;;;;;;;13.58;72.75;101915.44;5075300;28;20029;-36
2022/07/28 02:37:43;;;;;;;1.88;0.93;;;;;;;13.69;72.19;101930.16;5075504;28;20024;-36
2022/07/28 02:40:13;;;;;;;2.65;1.10;;;;;;;13.70;71.77;101925.53;5076267;28;20113;-36
2022/07/28 02:42:39;;;;;;;3.40;1.00;;;;;;;13.67;71.58;101931.44;5075427;28;20082;-36
2022/07/28 02:45:10;;;;;;;2.38;1.10;;;;;;;13.64;71.78;101922.66;5075143;28;20033;-36
2022/07/28 02:47:42;;;;;;;5.20;1.13;;;;;;;13.63;71.37;101931.06;5075444;28;20033;-36
2022/07/28 02:50:11;;;;;;;6.80;1.23;;;;;;;13.37;71.44;101922.13;5075332;28;20035;-36
2022/07/28 02:52:38;;;;;;;3.58;1.20;;;;;;;13.47;71.87;101937.91;5075246;28;20039;-36
2022/07/28 02:55:04;;;;;;;2.58;1.10;;;;;;;13.21;72.09;101917.19;5075390;28;20048;-36
2022/07/28 02:57:30;;;;;;;3.75;1.13;;;;;;;13.24;71.88;101924.94;5075472;28;20052;-36
2022/07/28 02:59:56;;;;;;;5.40;1.30;;;;;;;13.27;72.39;101934.53;5075667;28;20121;-36
2022/07/28 03:02:22;;;;;;;3.00;1.00;;;;;;;13.30;72.05;101932.19;5075045;28;20052;-35
2022/07/28 03:04:57;;;;;;;2.67;1.10;;;;;;;13.26;72.07;101925.53;5075307;28;20032;-35
2022/07/28 03:07:35;;;;;;;4.78;1.10;;;;;;;13.26;72.00;101925.53;5074758;28;20024;-36
2022/07/28 03:10:02;;;;;;;3.95;1.20;;;;;;;13.35;71.85;101928.81;5074951;28;20024;-36
2022/07/28 03:12:27;;;;;;;2.80;1.45;;;;;;;13.26;71.53;101927.44;5074954;28;20039;-36
2022/07/28 03:14:53;;;;;;;3.83;1.15;;;;;;;13.27;71.61;101927.19;5075637;28;20115;-36
2022/07/28 03:17:18;;;;;;;2.35;0.80;;;;;;;13.22;71.94;101926.22;5074767;28;20029;-35
2022/07/28 03:19:44;;;;;;;1.67;0.80;;;;;;;13.26;71.53;101927.44;5074779;28;20025;-36
2022/07/28 03:22:10;;;;;;;4.88;1.20;;;;;;;13.12;71.80;101930.22;5074060;28;20054;-36
2022/07/28 03:24:40;;;;;;;4.00;1.10;;;;;;;13.24;72.19;101932.28;5075199;28;20130;-36
2022/07/28 03:27:08;;;;;;;3.75;1.00;;;;;;;13.21;71.87;101936.22;5075205;28;20414;-36
2022/07/28 03:29:34;;;;;;;2.78;1.17;;;;;;;13.19;72.40;101929.34;5074308;28;20031;-35
2022/07/28 03:32:00;;;;;;;4.07;1.15;;;;;;;13.20;71.46;101942.72;5074197;28;20033;-36
2022/07/28 03:34:27;;;;;;;6.68;1.00;;;;;;;13.21;71.83;101935.38;5074200;28;20039;-36
2022/07/28 03:37:07;;;;;;;2.63;0.82;;;;;;;13.23;72.14;101941.47;5074641;28;20032;-35
2022/07/28 03:39:42;;;;;;;2.90;0.80;;;;;;;13.32;72.13;101940.97;5074885;28;20070;-36
2022/07/28 03:42:08;;;;;;;4.95;1.00;;;;;;;13.29;72.08;101941.41;5075040;28;20024;-36
2022/07/28 03:44:34;;;;;;;2.33;1.10;;;;;;;13.25;71.52;101950.22;5074474;28;20106;-35
2022/07/28 03:46:59;;;;;;;5.65;1.27;;;;;;;13.31;72.67;101938.47;5074431;28;20029;-36
2022/07/28 03:49:25;;;;;;;3.13;1.05;;;;;;;13.19;72.11;101940.22;5074588;28;20103;-36
2022/07/28 03:51:50;;;;;;;4.70;1.02;;;;;;;13.10;72.41;101928.78;5074384;28;20036;-35
2022/07/28 03:54:16;;;;;;;3.00;1.23;;;;;;;13.18;72.56;101939.41;5073804;28;20024;-36
2022/07/28 03:56:41;;;;;;;4.53;1.07;;;;;;;13.26;72.51;101943.72;5074906;28;20048;-36
2022/07/28 03:59:06;;;;;;;3.78;1.10;;;;;;;13.20;72.82;101948.13;5073586;28;20035;-35
2022/07/28 04:01:32;;;;;;;3.73;1.40;;;;;;;13.24;72.79;101938.53;5074182;28;20453;-36
2022/07/28 04:03:57;;;;;;;8.47;1.43;;;;;;;13.08;72.62;101942.59;5073816;28;20321;-36
2022/07/28 04:06:22;;;;;;;2.97;1.20;;;;;;;13.11;72.69;101939.44;5074150;28;20108;-36
2022/07/28 04:08:48;;;;;;;2.87;1.20;;;;;;;13.05;72.78;101932.19;5073754;28;20303;-36
2022/07/28 04:11:13;;;;;;;2.97;1.07;;;;;;;13.02;72.97;101927.16;5073561;28;20303;-36
2022/07/28 04:13:38;;;;;;;5.32;1.13;;;;;;;12.97;73.33;101929.72;5073947;28;20056;-36
2022/07/28 04:16:05;;;;;;;3.38;1.20;;;;;;;12.95;73.64;101933.72;5073364;28;20047;-35
2022/07/28 04:18:31;;;;;;;3.38;1.27;;;;;;;12.95;73.59;101926.41;5073693;28;20025;-35
2022/07/28 04:20:56;;;;;;;4.93;1.17;;;;;;;12.99;73.99;101932.22;5073492;28;20032;-35
2022/07/28 04:23:22;;;;;;;2.25;0.95;;;;;;;13.01;74.05;101928.22;5073443;28;20032;-35
2022/07/28 04:25:48;;;;;;;3.75;1.50;;;;;;;12.98;73.75;101922.41;5073402;28;20434;-35
2022/07/28 04:28:14;;;;;;;3.97;1.25;;;;;;;12.98;73.80;101927.84;5073167;28;20119;-35
2022/07/28 04:30:39;;;;;;;6.00;1.27;;;;;;;12.96;73.99;101930.78;5073858;28;20029;-35
2022/07/28 04:33:05;;;;;;;8.93;1.50;;;;;;;12.98;74.42;101931.41;5073472;28;20333;-35
2022/07/28 04:35:30;;;;;;;4.57;1.33;;;;;;;12.95;74.42;101929.13;5072416;28;20024;-35
2022/07/28 04:37:57;;;;;;;3.30;1.10;;;;;;;12.98;74.40;101923.25;5072972;28;20032;-35
2022/07/28 04:40:24;;;;;;;2.35;1.30;;;;;;;12.95;74.25;101918.25;5073251;28;20299;-35
2022/07/28 04:42:49;;;;;;;4.43;1.55;;;;;;;13.13;74.64;101922.94;5073425;28;20137;-35
2022/07/28 04:45:15;;;;;;;2.13;1.38;;;;;;;13.10;74.17;101934.22;5073242;28;20082;-35
2022/07/28 04:47:41;;;;;;;3.53;1.10;;;;;;;13.05;74.38;101934.88;5073073;28;20025;-35
2022/07/28 04:50:08;;;;;;;2.28;1.10;;;;;;;13.03;74.27;101926.16;5073388;28;20036;-35
2022/07/28 04:52:34;;;;;;;4.10;1.35;;;;;;;13.06;74.48;101924.84;5072841;28;20365;-35
2022/07/28 04:55:00;;;;;;;3.75;1.20;;;;;;;13.08;74.35;101920.88;5072899;28;20033;-35
2022/07/28 04:57:27;;;;;;;3.72;1.45;;;;;;;12.98;74.71;101922.41;5073279;28;20067;-36
2022/07/28 04:59:53;;;;;;;5.72;1.63;;;;;;;13.07;74.59;101915.66;5073230;28;20119;-35
2022/07/28 05:02:18;;;;;;;;;;;;;;;13.17;74.04;101921.41;5073141;28;20036;-36
2022/07/28 05:04:44;;;;;;;4.70;1.60;;;;;;;12.96;74.71;101914.50;5072792;28;20253;-36
2022/07/28 05:07:10;;;;;;;4.68;1.40;;;;;;;13.08;75.07;101929.03;5073145;28;20055;-35
2022/07/28 05:09:35;;;;;;;2.88;1.30;;;;;;;12.96;75.52;101914.50;5073457;28;20156;-36
2022/07/28 05:12:01;;;;;;;2.92;1.30;;;;;;;12.99;75.15;101935.78;5073262;28;20028;-35
2022/07/28 05:14:26;;;;;;;3.30;1.27;;;;;;;12.98;76.45;101928.69;5072869;28;20037;-35
2022/07/28 05:16:51;;;;;;;5.30;1.30;;;;;;;13.09;75.87;101930.69;5072446;28;20029;-36
2022/07/28 05:19:17;;;;;;;4.40;1.33;;;;;;;13.09;76.07;101919.00;5073076;28;20282;-36
2022/07/28 05:21:43;;;;;;;4.10;1.33;;;;;;;13.21;75.49;101932.66;5072761;28;20021;-35
2022/07/28 05:24:09;;;;;;;3.17;1.20;;;;;;;13.23;75.32;101941.47;5072734;28;20456;-36
2022/07/28 05:26:34;;;;;;;3.78;1.40;;;;;;;13.17;75.30;101932.28;5072748;28;20032;-36
2022/07/28 05:29:00;;;;;;;3.50;1.27;;;;;;;13.21;75.54;101932.66;5073477;28;20431;-35
2022/07/28 05:31:26;;;;;;;4.75;1.60;;;;;;;13.30;75.40;101926.78;5072727;28;20039;-36
2022/07/28 05:33:51;;;;;;;4.07;1.48;;;;;;;13.36;75.31;101915.00;5072396;28;20033;-36
2022/07/28 05:36:16;;;;;;;6.68;1.77;;;;;;;13.52;75.13;101929.91;5072942;28;20020;-35
2022/07/28 05:38:42;;;;;;;3.97;1.20;;;;;;;13.70;75.04;101928.25;5072876;28;20380;-36
2022/07/28 05:41:07;;;;;;;;;;;;;;;13.76;74.38;101935.50;5072877;28;20029;-36
2022/07/28 05:43:36;;;;;;;3.83;1.50;;;;;;;13.71;74.28;101927.19;5072478;28;19913;-35
2022/07/28 05:46:02;;;;;;;5.78;1.50;;;;;;;13.86;74.15;101930.41;5074487;28;20031;-36
2022/07/28 05:48:27;;;;;;;;;;;;;;;14.04;74.03;101933.09;5076671;28;20032;-36
2022/07/28 05:50:53;;;;;;;6.17;1.67;;;;;;;14.00;73.88;101920.19;5076984;28;19912;-36
2022/07/28 05:53:20;;;;;;;4.20;1.50;;;;;;;14.12;73.09;101926.53;5076524;28;20040;-36
2022/07/28 05:55:46;;;;;;;5.85;1.67;;;;;;;14.18;72.32;101923.72;5076484;28;20340;-36
2022/07/28 05:58:11;;;;;;;;;;;;;;;14.33;72.24;101933.38;5076333;28;20035;-36
2022/07/28 06:00:36;;;;;;;5.22;1.60;;;;;;;14.29;72.54;101935.72;5076186;28;19912;-35
2022/07/28 06:03:02;;;;;;;6.10;1.75;;;;;;;14.41;72.10;101938.50;5076877;28;20460;-35
2022/07/28 06:05:29;;;;;;;6.25;1.60;;;;;;;14.39;72.27;101932.44;5076195;28;20052;-36
2022/07/28 06:07:56;;;;;;;6.55;1.30;;;;;;;14.66;72.55;101949.28;5076064;28;20139;-35
2022/07/28 06:10:24;;;;;;;3.83;1.40;;;;;;;14.89;71.11;101940.38;5075777;28;20025;-36
2022/07/28 06:12:53;;;;;;;5.90;1.60;;;;;;;15.02;71.78;101933.88;5075706;28;20475;-36
2022/07/28 06:15:25;;;;;;;3.95;1.30;;;;;;;14.98;70.31;101933.50;5076638;28;20032;-36
2022/07/28 06:17:52;;;;;;;5.03;1.50;;;;;;;14.92;69.25;101935.25;5075497;28;20511;-35
2022/07/28 06:20:20;;;;;;;5.30;1.30;;;;;;;15.03;70.54;101936.38;5076076;28;20037;-36
2022/07/28 06:22:47;;;;;;;4.68;1.50;;;;;;;14.91;69.04;101925.44;5075738;28;20036;-36
2022/07/28 06:25:18;;;;;;;2.35;1.00;;;;;;;15.09;70.37;101934.59;5075098;28;20086;-36
2022/07/28 06:27:45;;;;;;;3.28;1.50;;;;;;;15.16;70.39;101933.41;5075682;28;20109;-36
2022/07/28 06:30:11;;;;;;;5.93;1.48;;;;;;;15.08;69.12;101931.06;5076475;28;20033;-36
2022/07/28 06:32:36;;;;;;;;;;;;;;;15.04;69.02;101934.47;5075977;28;20074;-36
2022/07/28 06:35:03;;;;;;;5.00;1.20;;;;;;;14.96;69.26;101919.28;5076370;28;20267;-36
2022/07/28 06:37:28;;;;;;;;;;;;;;;15.11;68.56;101933.28;5075888;28;20028;-35
2022/07/28 06:39:53;;;;;;;4.00;1.17;;;;;;;14.92;69.42;101905.31;5075524;28;20278;-35
2022/07/28 06:42:18;;;;;;;;;;;;;;;15.04;68.05;101932.59;5075883;28;20551;-35
2022/07/28 06:44:44;;;;;;;4.70;1.50;;;;;;;15.05;68.33;101936.97;5075523;28;19923;-35
2022/07/28 06:47:09;;;;;;;;;;;;;;;15.06;67.88;101930.44;5076227;28;20056;-35
2022/07/28 06:49:34;;;;;;;3.87;1.30;;;;;;;15.10;69.26;101928.91;5075133;28;20284;-35
2022/07/28 06:51:59;;;;;;;;;;;;;;;15.17;68.67;101926.91;5075741;28;20479;-35
2022/07/28 06:54:25;;;;;;;4.80;1.43;;;;;;;15.20;68.16;101931.06;5075489;28;20384;-35
2022/07/28 06:56:51;;;;;;;7.13;1.40;;;;;;;15.18;67.04;101927.75;5075303;28;20345;-35
2022/07/28 06:59:17;;;;;;;4.32;1.70;;;;;;;15.29;67.56;101928.81;5075831;28;20271;-35
2022/07/28 07:01:42;;;;;;;;;;;;;;;15.45;67.69;101931.66;5076310;28;20033;-35
2022/07/28 07:04:07;;;;;;;6.70;1.10;;;;;;;15.51;68.01;101938.06;5074999;28;19909;-36
2022/07/28 07:06:33;;;;;;;;;;;;;;;15.65;67.36;101931.31;5075711;28;20024;-35
2022/07/28 07:08:59;;;;;;;7.53;1.63;;;;;;;15.50;66.37;101925.50;5073518;28;19916;-35
2022/07/28 07:11:25;;;;;;;3.95;1.10;;;;;;;15.70;67.21;101933.34;5075056;28;20026;-35
2022/07/28 07:13:51;;;;;;;2.80;0.90;;;;;;;15.62;65.70;101918.16;5074556;28;20082;-35
2022/07/28 07:16:16;;;;;;;;;;;;;;;15.88;65.63;101926.91;5075497;28;20491;-35
2022/07/28 07:18:42;;;;;;;5.30;1.25;;;;;;;15.94;66.41;101924.03;5074848;28;19912;-35
2022/07/28 07:21:07;;;;;;;4.57;1.20;;;;;;;15.84;66.18;101920.28;5075210;28;20028;-35
2022/07/28 07:23:34;;;;;;;2.93;1.20;;;;;;;15.87;65.71;101933.44;5074633;28;20317;-35
2022/07/28 07:25:59;;;;;;;7.10;1.90;;;;;;;15.94;65.26;101934.13;5074490;28;20029;-35
2022/07/28 07:28:24;;;;;;;;;;;;;;;16.16;65.06;101939.78;5074758;28;20037;-36
2022/07/28 07:30:50;;;;;;;4.47;1.00;;;;;;;16.09;63.63;101939.91;5074446;28;19915;-35
2022/07/28 07:33:15;;;;;;;3.67;1.30;;;;;;;16.23;64.46;101941.28;5074462;28;20262;-35
2022/07/28 07:35:40;;;;;;;4.80;1.30;;;;;;;16.32;64.27;101933.56;5074467;28;20028;-35
2022/07/28 07:38:06;;;;;;;;;;;;;;;16.41;63.94;101928.53;5073532;28;20029;-35
2022/07/28 07:40:31;;;;;;;4.97;1.00;;;;;;;16.47;63.55;101925.66;5075378;28;19912;-35
2022/07/28 07:42:57;;;;;;;;;;;;;;;16.61;64.66;101928.09;5075248;28;20116;-35
2022/07/28 07:45:22;;;;;;;3.77;1.10;;;;;;;16.67;63.22;101925.22;5074296;28;19912;-35
2022/07/28 07:47:47;;;;;;;;;;;;;;;16.82;63.14;101921.13;5074908;28;20020;-35
2022/07/28 07:50:12;;;;;;;3.83;1.20;;;;;;;16.78;62.59;101920.78;5073918;28;20376;-35
2022/07/28 07:52:38;;;;;;;;;;;;;;;16.81;62.24;101925.75;5073162;28;20037;-35
2022/07/28 07:55:03;;;;;;;3.03;1.20;;;;;;;16.70;62.12;101913.81;5074073;28;19923;-36
2022/07/28 07:57:29;;;;;;;4.22;1.40;;;;;;;16.86;62.69;101911.38;5074662;28;20279;-35
2022/07/28 07:59:54;;;;;;;;;;;;;;;17.02;62.74;101916.00;5074164;28;20541;-36
2022/07/28 08:02:19;;;;;;;5.27;1.37;;;;;;;17.05;62.62;101893.66;5074180;28;19951;-35
2022/07/28 08:04:44;;;;;;;;;;;;;;;17.23;61.19;101912.53;5074625;28;20111;-35
2022/07/28 08:07:10;;;;;;;4.93;0.90;;;;;;;17.16;60.95;101906.41;5074128;28;19918;-35
2022/07/28 08:09:35;;;;;;;;;;;;;;;17.30;60.90;101906.88;5074395;28;20082;-35
2022/07/28 08:12:01;;;;;;;3.17;1.27;;;;;;;17.21;60.11;101902.91;5073985;28;19908;-35
2022/07/28 08:14:26;;;;;;;;;;;;;;;17.35;60.57;101904.22;5073864;28;20476;-35
2022/07/28 08:16:53;;;;;;;3.17;0.90;;;;;;;17.32;60.21;101887.50;5073904;28;19982;-35
2022/07/28 08:19:18;;;;;;;6.50;1.25;;;;;;;17.36;59.72;101905.88;5074076;28;20262;-35
2022/07/28 08:21:43;;;;;;;;;;;;;;;17.55;60.05;101903.69;5074054;28;20024;-35
2022/07/28 08:24:08;;;;;;;4.90;0.93;;;;;;;17.57;58.77;101915.22;5074050;28;19908;-35
2022/07/28 08:26:34;;;;;;;;;;;;;;;17.73;59.19;101897.16;5074134;28;20039;-35
2022/07/28 08:28:59;;;;;;;4.88;1.05;;;;;;;17.81;57.73;101893.13;5073384;28;20316;-35
2022/07/28 08:31:25;;;;;;;;;;;;;;;17.96;57.64;101894.16;5074427;28;20024;-35
2022/07/28 08:33:51;;;;;;;3.00;0.90;;;;;;;17.98;58.29;101889.25;5073571;28;20006;-35
2022/07/28 08:36:16;;;;;;;4.40;1.00;;;;;;;17.94;58.05;101900.97;5073490;28;20032;-35
2022/07/28 08:38:41;;;;;;;;;;;;;;;18.14;59.34;101905.84;5073399;28;20479;-35
2022/07/28 08:41:15;;;;;;;5.03;1.35;;;;;;;18.23;55.85;101898.84;5073150;28;20388;-35
2022/07/28 08:43:42;;;;;;;4.25;1.05;;;;;;;18.32;55.35;101893.75;5073239;28;20107;-35
2022/07/28 08:46:08;;;;;;;3.53;1.05;;;;;;;18.11;54.82;101898.19;5073190;28;20029;-35
2022/07/28 08:48:35;;;;;;;3.10;0.80;;;;;;;18.30;57.31;101895.91;5073214;28;20032;-35
2022/07/28 08:51:05;;;;;;;3.17;1.00;;;;;;;18.43;55.21;101887.28;5073123;28;20033;-35
2022/07/28 08:53:33;;;;;;;3.83;0.80;;;;;;;18.51;55.07;101892.31;5072931;28;20020;-35
2022/07/28 08:56:03;;;;;;;4.03;1.38;;;;;;;18.65;54.58;101888.06;5073457;28;20048;-34
2022/07/28 08:58:31;;;;;;;1.90;0.88;;;;;;;18.76;54.87;101887.09;5072812;28;20028;-35
2022/07/28 09:00:57;;;;;;;4.82;0.80;;;;;;;18.95;55.07;101884.78;5073534;28;20090;-35
2022/07/28 09:03:23;;;;;;;2.90;0.85;;;;;;;18.98;52.77;101878.78;5072805;28;20437;-35
2022/07/28 09:05:49;;;;;;;1.77;0.75;;;;;;;19.00;52.92;101884.81;5072923;28;20052;-35
2022/07/28 09:08:16;;;;;;;;;;;;;;;18.98;51.92;101883.44;5073192;28;20082;-35
2022/07/28 09:10:41;;;;;;;2.53;0.80;;;;;;;18.92;52.65;101882.56;5072858;28;19919;-35
2022/07/28 09:13:06;;;;;;;4.65;1.05;;;;;;;18.96;51.38;101883.69;5073603;28;20028;-35
2022/07/28 09:15:33;;;;;;;6.20;1.05;;;;;;;19.13;51.81;101880.81;5073437;28;20032;-35
2022/07/28 09:17:58;;;;;;;3.30;0.85;;;;;;;19.20;51.11;101869.63;5072754;28;20456;-35
2022/07/28 09:20:25;;;;;;;3.17;0.82;;;;;;;19.22;50.47;101887.44;5072882;28;20213;-35
2022/07/28 09:23:02;;;;;;;2.50;0.90;;;;;;;19.45;51.45;101878.00;5073299;28;20100;-35
2022/07/28 09:25:29;;;;;;;4.65;1.10;;;;;;;19.56;51.46;101865.97;5073164;28;20052;-36
2022/07/28 09:27:55;;;;;;;3.15;0.80;;;;;;;19.62;50.68;101871.53;5072770;28;20036;-35
2022/07/28 09:30:31;;;;;;;2.35;0.75;;;;;;;19.29;50.74;101863.38;5071741;28;20055;-35
2022/07/28 09:33:14;;;;;;;3.55;0.95;;;;;;;19.47;52.02;101853.03;5072369;28;20060;-36
2022/07/28 09:35:44;;;;;;;5.05;1.13;;;;;;;19.57;51.21;101853.13;5073085;28;20050;-35
2022/07/28 09:38:09;;;;;;;3.83;1.00;;;;;;;19.79;51.31;101847.47;5072576;28;20025;-35
2022/07/28 09:40:35;;;;;;;7.05;1.13;;;;;;;19.96;50.88;101850.84;5072969;28;20089;-35
2022/07/28 09:43:00;;;;;;;3.80;1.00;;;;;;;20.14;50.09;101846.75;5072776;28;20025;-35
2022/07/28 09:45:26;;;;;;;;;;;;;;;20.43;51.13;101843.50;5073682;28;20035;-35
2022/07/28 09:48:08;;;;;;;2.25;0.65;;;;;;;20.47;49.30;101839.16;5072555;28;20274;-35
2022/07/28 09:50:34;;;;;;;2.75;0.63;;;;;;;20.41;50.57;101826.50;5072422;28;20060;-35
2022/07/28 09:53:01;;;;;;;3.42;1.02;;;;;;;20.50;50.37;101830.38;5073016;28;20468;-36
2022/07/28 09:55:26;;;;;;;6.97;1.25;;;;;;;20.50;48.85;101822.97;5072716;28;20484;-36
2022/07/28 09:57:53;;;;;;;3.58;0.90;;;;;;;20.16;48.08;101822.59;5072072;28;20032;-36
2022/07/28 10:00:30;;;;;;;3.88;1.08;;;;;;;20.03;48.43;101818.44;5072821;28;20020;-36
2022/07/28 10:02:55;;;;;;;3.40;0.88;;;;;;;20.16;48.28;101819.03;5072293;28;20058;-36
2022/07/28 10:05:21;;;;;;;1.98;0.77;;;;;;;20.46;49.25;101835.56;5072843;28;20024;-36
2022/07/28 10:07:49;;;;;;;3.15;0.73;;;;;;;20.49;48.68;101834.22;5072515;28;20028;-36
2022/07/28 10:10:19;;;;;;;4.00;1.00;;;;;;;20.43;47.82;101827.84;5072575;28;20387;-36
2022/07/28 10:12:45;;;;;;;2.90;1.00;;;;;;;20.36;46.93;101832.81;5072414;28;20028;-36
2022/07/28 10:18:01;;;;;;;3.08;1.02;;;;;;;20.57;47.12;101825.44;5071965;28;20490;-36
2022/07/28 10:20:28;;;;;;;4.03;0.82;;;;;;;20.81;46.69;101822.94;5072548;28;20095;-36
2022/07/28 10:23:12;;;;;;;3.05;1.00;;;;;;;21.03;45.85;101817.13;5072092;28;20118;-36
2022/07/28 10:25:39;;;;;;;4.55;1.00;;;;;;;21.25;47.47;101803.06;5073271;28;20467;-36
2022/07/28 10:28:05;;;;;;;4.13;1.38;;;;;;;21.06;46.18;101787.16;5072040;28;20047;-36
2022/07/28 10:30:39;;;;;;;3.10;0.90;;;;;;;21.32;45.79;101811.88;5072496;28;20028;-36
2022/07/28 10:33:12;;;;;;;5.75;0.93;;;;;;;21.52;46.53;101797.22;5073922;28;20032;-36
2022/07/28 10:35:38;;;;;;;3.38;0.88;;;;;;;21.37;45.54;101817.38;5075390;28;20468;-36
2022/07/28 10:38:11;;;;;;;3.35;1.08;;;;;;;21.39;45.43;101825.34;5075598;28;20033;-38
2022/07/28 10:40:43;;;;;;;3.60;0.80;;;;;;;21.25;47.21;101816.81;5076158;28;20525;-36
2022/07/28 10:43:09;;;;;;;3.22;1.02;;;;;;;21.22;45.53;101812.69;5075807;28;20480;-36
2022/07/28 10:45:34;;;;;;;4.38;1.00;;;;;;;21.25;45.54;101808.56;5075700;28;20516;-36
2022/07/28 10:48:01;;;;;;;4.35;0.90;;;;;;;21.34;44.95;101810.50;5075138;28;20124;-36
2022/07/28 10:50:27;;;;;;;3.45;0.80;;;;;;;21.52;44.35;101795.31;5075686;28;20078;-36
2022/07/28 10:52:52;;;;;;;2.80;1.02;;;;;;;21.47;43.71;101798.09;5075848;28;20020;-36
2022/07/28 10:55:39;;;;;;;5.85;0.90;;;;;;;21.68;45.41;101798.00;5075146;28;20048;-36
2022/07/28 10:58:35;;;;;;;2.42;0.70;;;;;;;21.91;44.41;101800.09;5075364;28;20043;-36
2022/07/28 11:01:00;;;;;;;2.78;0.90;;;;;;;21.68;42.70;101793.31;5074855;28;20060;-36
2022/07/28 11:03:43;;;;;;;4.47;0.93;;;;;;;22.03;44.66;101791.47;5075074;28;20110;-36
2022/07/28 11:06:33;;;;;;;3.05;0.80;;;;;;;21.90;42.37;101798.41;5074903;28;20472;-36
2022/07/28 11:09:16;;;;;;;4.50;0.90;;;;;;;22.10;42.74;101786.44;5075805;28;20406;-36
2022/07/28 11:11:50;;;;;;;3.17;0.80;;;;;;;22.25;42.69;101796.56;5075265;28;20056;-36
2022/07/28 11:14:36;;;;;;;2.95;0.80;;;;;;;22.55;42.95;101784.50;5075216;28;20029;-36
2022/07/28 11:17:04;;;;;;;3.47;0.90;;;;;;;22.53;42.57;101767.41;5075359;28;20449;-36
2022/07/28 11:19:52;;;;;;;5.45;1.10;;;;;;;22.67;42.55;101754.63;5074773;28;20020;-36
2022/07/28 11:22:38;;;;;;;3.63;0.82;;;;;;;22.74;40.57;101788.19;5075019;28;20083;-36
2022/07/28 11:25:05;;;;;;;3.53;0.80;;;;;;;22.60;41.63;101773.44;5074155;28;20040;-36
2022/07/28 11:27:40;;;;;;;2.90;0.93;;;;;;;22.56;43.11;101766.84;5075148;28;20384;-36
2022/07/28 11:30:10;;;;;;;1.38;0.60;;;;;;;22.53;41.63;101770.19;5074604;28;20025;-36
2022/07/28 11:32:54;;;;;;;3.83;0.90;;;;;;;22.72;40.72;101773.84;5075077;28;20028;-36
2022/07/28 11:35:20;;;;;;;3.67;0.88;;;;;;;22.78;40.52;101760.84;5074272;28;20054;-36
2022/07/28 11:38:00;;;;;;;4.50;0.90;;;;;;;22.97;41.83;101763.72;5074128;28;20424;-36
2022/07/28 11:40:32;;;;;;;2.53;0.80;;;;;;;22.98;40.40;101754.31;5074456;28;20052;-36
2022/07/28 11:43:24;;;;;;;1.77;0.77;;;;;;;23.06;41.16;101757.25;5073878;28;20033;-36
2022/07/28 11:46:10;;;;;;;2.60;0.82;;;;;;;22.69;41.29;101757.88;5068350;28;20127;-36